Time;durP1;ratioP1;P1;durP2;ratioP2;P2;SDS_P1;SDS_P2;PMS_P1;PMS_P2;Temp;Humidity;BMP_temperature;BMP_pressure;BME280_temperature;BME280_humidity;BME280_pressure;Samples;Min_cycle;Max_cycle;Signal;HPM_P1;HPM_P2
2021/08/24 00:00:00;;;;;;;8.85;5.57;;;;;;;13.28;100.00;99455.97;4974092;28;20065;-73
2021/08/24 00:02:25;;;;;;;8.65;5.85;;;;;;;13.33;100.00;99458.03;4974253;28;20421;-73
2021/08/24 00:04:51;;;;;;;10.38;6.40;;;;;;;13.21;100.00;99455.06;4966534;28;20034;-72
2021/08/24 00:07:16;;;;;;;8.23;6.38;;;;;;;13.24;100.00;99451.09;4955283;28;20410;-72
2021/08/24 00:09:41;;;;;;;10.30;6.88;;;;;;;13.54;100.00;99473.34;4956092;28;20067;-73
2021/08/24 00:12:07;;;;;;;12.23;6.70;;;;;;;13.53;100.00;99471.69;4965579;28;20077;-73
2021/08/24 00:14:33;;;;;;;10.27;7.43;;;;;;;13.33;100.00;99428.97;4960255;28;20027;-73
2021/08/24 00:16:59;;;;;;;8.45;6.43;;;;;;;13.49;100.00;99462.25;4956116;28;20034;-72
2021/08/24 00:19:25;;;;;;;9.60;6.38;;;;;;;13.32;100.00;99468.06;4965900;28;20031;-73
2021/08/24 00:21:51;;;;;;;9.10;6.60;;;;;;;13.23;100.00;99460.28;4967836;28;20034;-73
2021/08/24 00:24:17;;;;;;;8.60;6.93;;;;;;;13.01;100.00;99446.00;4974159;28;20109;-73
2021/08/24 00:26:42;;;;;;;10.25;6.90;;;;;;;13.15;100.00;99464.88;4972741;28;20101;-73
2021/08/24 00:29:08;;;;;;;11.73;6.93;;;;;;;13.21;100.00;99465.94;4968824;28;20034;-72
2021/08/24 00:31:34;;;;;;;10.20;6.63;;;;;;;13.08;100.00;99452.31;4965406;28;20499;-73
2021/08/24 00:33:59;;;;;;;12.27;5.78;;;;;;;12.88;100.00;99428.59;4974186;28;20026;-72
2021/08/24 00:36:25;;;;;;;7.38;5.72;;;;;;;12.86;100.00;99441.56;4974637;28;20166;-72
2021/08/24 00:38:50;;;;;;;10.18;5.53;;;;;;;12.83;100.00;99460.97;4974459;28;20392;-73
2021/08/24 00:41:17;;;;;;;8.70;5.88;;;;;;;12.79;100.00;99467.00;4970827;28;20038;-73
2021/08/24 00:43:45;;;;;;;9.23;5.43;;;;;;;12.77;100.00;99474.53;4973783;28;20069;-73
2021/08/24 00:46:37;;;;;;;10.70;6.65;;;;;;;12.70;100.00;99474.47;4958043;28;20165;-73
2021/08/24 00:49:10;;;;;;;10.15;6.25;;;;;;;12.63;100.00;99474.44;4964341;28;20041;-73
2021/08/24 00:51:38;;;;;;;14.52;6.72;;;;;;;12.57;100.00;99453.50;4967822;28;20401;-73
2021/08/24 00:54:14;;;;;;;8.73;6.65;;;;;;;12.59;100.00;99475.03;4974267;28;20031;-72
2021/08/24 00:56:46;;;;;;;10.50;6.22;;;;;;;12.54;100.00;99463.94;4974790;28;20481;-73
2021/08/24 00:59:11;;;;;;;12.60;6.40;;;;;;;12.30;100.00;99449.81;4960778;28;20079;-73
2021/08/24 01:01:36;;;;;;;9.80;6.60;;;;;;;12.23;100.00;99441.63;4959388;28;20629;-73
2021/08/24 01:04:03;;;;;;;10.63;6.80;;;;;;;12.25;100.00;99469.38;4973010;28;20484;-72
2021/08/24 01:06:34;;;;;;;11.32;6.38;;;;;;;12.11;100.00;99453.22;4972303;28;20027;-73
2021/08/24 01:09:11;;;;;;;9.65;6.13;;;;;;;12.05;100.00;99452.97;4971827;28;20031;-73
2021/08/24 01:11:55;;;;;;;10.32;6.55;;;;;;;12.11;100.00;99470.34;4969243;28;20029;-72
2021/08/24 01:14:39;;;;;;;10.10;6.75;;;;;;;11.95;100.00;99462.50;4957146;28;20106;-72
2021/08/24 01:17:13;;;;;;;10.20;6.10;;;;;;;11.94;100.00;99469.78;4967076;28;20106;-73
2021/08/24 01:20:00;;;;;;;9.57;6.15;;;;;;;11.81;100.00;99459.63;4971904;28;20105;-73
2021/08/24 01:22:46;;;;;;;11.15;6.18;;;;;;;11.79;100.00;99477.13;4977197;28;20088;-72
2021/08/24 01:25:22;;;;;;;10.77;6.32;;;;;;;11.83;100.00;99473.00;4974282;28;20097;-73
2021/08/24 01:28:16;;;;;;;10.07;6.68;;;;;;;11.72;100.00;99468.09;4965324;28;20074;-73
2021/08/24 01:31:03;;;;;;;7.57;5.53;;;;;;;11.62;100.00;99473.84;4958678;28;20505;-72
2021/08/24 01:33:49;;;;;;;12.10;6.07;;;;;;;11.55;100.00;99459.38;4965346;28;20350;-72
2021/08/24 01:36:39;;;;;;;8.43;5.50;;;;;;;11.61;100.00;99466.75;4975532;28;20153;-72
2021/08/24 01:39:08;;;;;;;11.20;6.05;;;;;;;11.37;100.00;99447.13;4971603;28;20089;-73
2021/08/24 01:41:59;;;;;;;9.57;6.30;;;;;;;11.48;100.00;99469.34;4966359;28;20033;-73
2021/08/24 01:44:32;;;;;;;9.00;6.28;;;;;;;11.30;100.00;99459.75;4968751;28;20035;-72
2021/08/24 01:47:07;;;;;;;13.40;7.55;;;;;;;11.35;100.00;99465.44;4975659;28;20037;-73
2021/08/24 01:49:41;;;;;;;11.00;5.88;;;;;;;11.35;100.00;99461.91;4977089;28;20054;-70
2021/08/24 01:52:10;;;;;;;17.25;5.75;;;;;;;11.28;100.00;99460.97;4969121;28;20038;-70
2021/08/24 01:54:43;;;;;;;12.68;5.50;;;;;;;11.26;100.00;99460.31;4971720;28;20015;-70
2021/08/24 01:57:14;;;;;;;10.85;5.90;;;;;;;11.27;100.00;99467.44;4968930;28;20031;-70
2021/08/24 01:59:50;;;;;;;7.60;5.43;;;;;;;11.14;100.00;99455.41;4970126;28;20022;-70
2021/08/24 02:02:22;;;;;;;12.70;5.70;;;;;;;11.02;100.00;99453.41;4971208;28;20022;-70
2021/08/24 02:05:14;;;;;;;15.20;5.93;;;;;;;11.03;100.00;99465.88;4968871;28;20837;-70
2021/08/24 02:07:42;;;;;;;8.95;5.65;;;;;;;10.90;100.00;99463.88;4928581;29;20047;-70
2021/08/24 02:10:15;;;;;;;8.98;5.03;;;;;;;10.89;100.00;99473.03;4961398;28;20165;-72
2021/08/24 02:12:44;;;;;;;8.25;6.07;;;;;;;10.88;100.00;99479.47;4972952;28;20456;-73
2021/08/24 02:15:10;;;;;;;10.57;5.63;;;;;;;10.94;100.00;99473.28;4976316;28;20121;-72
2021/08/24 02:17:42;;;;;;;10.70;6.35;;;;;;;10.89;100.00;99478.44;4972080;28;20278;-72
2021/08/24 02:20:15;;;;;;;8.98;5.47;;;;;;;10.85;100.00;99477.16;5071106;23;20030;-68
2021/08/24 02:22:44;;;;;;;12.55;5.53;;;;;;;10.69;100.00;99457.38;5002619;28;20036;-68
2021/08/24 02:25:13;;;;;;;8.27;5.45;;;;;;;10.81;100.00;99473.13;4993406;28;20038;-68
2021/08/24 02:27:45;;;;;;;9.15;5.40;;;;;;;10.75;100.00;99477.44;5012223;28;20027;-68
2021/08/24 02:30:11;;;;;;;9.80;5.78;;;;;;;10.60;100.00;99463.91;5028459;28;20542;-68
2021/08/24 02:32:41;;;;;;;9.90;5.38;;;;;;;10.73;100.00;99472.19;5006378;28;20117;-68
2021/08/24 02:35:30;;;;;;;8.57;5.00;;;;;;;10.69;100.00;99478.19;5003661;28;20023;-68
2021/08/24 02:38:04;;;;;;;7.15;4.80;;;;;;;10.61;100.00;99468.31;5014366;28;20031;-68
2021/08/24 02:40:39;;;;;;;7.63;4.72;;;;;;;10.65;100.00;99475.00;5011905;28;20026;-68
2021/08/24 02:43:49;;;;;;;7.70;5.15;;;;;;;10.68;100.00;99469.22;4995061;28;20030;-68
2021/08/24 02:46:18;;;;;;;12.88;6.28;;;;;;;10.68;100.00;99480.03;4972748;29;20046;-68
2021/08/24 02:48:49;;;;;;;12.77;6.63;;;;;;;10.67;100.00;99462.13;5000621;28;20099;-68
2021/08/24 02:51:17;;;;;;;9.48;5.97;;;;;;;10.71;100.00;99471.53;5002892;28;20098;-68
2021/08/24 02:53:57;;;;;;;16.17;8.23;;;;;;;10.73;100.00;99472.19;4995403;28;20177;-68
2021/08/24 02:56:22;;;;;;;15.73;8.45;;;;;;;10.72;100.00;99465.13;4995930;28;20026;-68
2021/08/24 02:58:47;;;;;;;16.77;8.40;;;;;;;10.70;100.00;99464.44;4996005;28;20033;-68
2021/08/24 03:01:13;;;;;;;17.13;8.98;;;;;;;10.73;100.00;99468.66;4995979;28;20049;-68
2021/08/24 03:03:38;;;;;;;12.40;7.57;;;;;;;10.53;100.00;99449.44;4993677;28;20026;-68
2021/08/24 03:06:03;;;;;;;12.25;7.90;;;;;;;10.56;100.00;99459.03;4994646;28;20606;-68
2021/08/24 03:08:29;;;;;;;12.60;7.28;;;;;;;10.49;100.00;99467.06;4980536;28;20019;-67
2021/08/24 03:10:55;;;;;;;17.50;6.88;;;;;;;10.38;100.00;99460.28;4976660;28;20420;-69
2021/08/24 03:13:32;;;;;;;13.23;6.63;;;;;;;10.37;100.00;99461.28;4994526;28;20056;-68
2021/08/24 03:16:28;;;;;;;14.00;6.65;;;;;;;10.28;100.00;99452.44;4996093;28;20053;-67
2021/08/24 03:19:22;;;;;;;9.52;5.13;;;;;;;10.25;100.00;99463.59;4986805;28;20504;-68
2021/08/24 03:21:48;;;;;;;7.85;5.10;;;;;;;10.22;100.00;99463.13;4990756;28;20037;-67
2021/08/24 03:24:15;;;;;;;7.38;4.93;;;;;;;10.16;100.00;99472.78;4995459;28;20027;-67
2021/08/24 03:26:44;;;;;;;10.77;5.40;;;;;;;10.10;100.00;99457.31;5000680;28;20030;-67
2021/08/24 03:29:13;;;;;;;8.50;4.68;;;;;;;10.12;100.00;99471.50;4999736;28;20018;-67
2021/08/24 03:31:40;;;;;;;8.77;5.32;;;;;;;10.04;100.00;99466.16;4994183;28;20018;-68
2021/08/24 03:34:06;;;;;;;9.98;4.55;;;;;;;9.96;100.00;99468.94;4995398;28;20389;-68
2021/08/24 03:36:32;;;;;;;7.70;4.30;;;;;;;9.85;100.00;99460.25;4986171;28;20031;-68
2021/08/24 03:38:58;;;;;;;8.10;4.65;;;;;;;9.87;100.00;99462.75;4985164;28;20377;-68
2021/08/24 03:41:24;;;;;;;10.52;5.35;;;;;;;9.93;100.00;99469.28;4998928;28;20038;-68
2021/08/24 03:43:49;;;;;;;8.88;5.30;;;;;;;9.83;100.00;99465.00;5005872;28;20055;-68
2021/08/24 03:46:14;;;;;;;10.35;4.95;;;;;;;9.82;100.00;99475.97;4994790;28;20046;-67
2021/08/24 03:48:40;;;;;;;11.27;6.32;;;;;;;9.78;100.00;99461.16;5013109;28;20031;-68
2021/08/24 03:51:05;;;;;;;14.75;6.90;;;;;;;9.82;100.00;99478.69;5013255;28;20034;-67
2021/08/24 03:53:34;;;;;;;13.18;6.18;;;;;;;9.69;100.00;99483.84;5013337;28;20042;-68
2021/08/24 03:56:00;;;;;;;8.80;5.20;;;;;;;9.66;100.00;99488.59;5014029;28;20029;-68
2021/08/24 03:58:25;;;;;;;9.10;5.40;;;;;;;9.63;100.00;99474.63;5012420;28;20117;-68
2021/08/24 04:00:51;;;;;;;8.38;5.00;;;;;;;9.73;100.00;99496.00;4995123;28;20043;-68
2021/08/24 04:03:18;;;;;;;8.35;4.95;;;;;;;9.55;100.00;99483.63;5001973;28;20026;-69
2021/08/24 04:05:43;;;;;;;8.48;4.25;;;;;;;9.55;100.00;99496.28;5029070;28;20027;-68
2021/08/24 04:08:09;;;;;;;8.80;4.72;;;;;;;9.41;100.00;99492.50;5012457;28;20164;-74
2021/08/24 04:10:35;;;;;;;7.65;4.93;;;;;;;9.38;100.00;99495.56;5014324;28;20057;-75
2021/08/24 04:13:05;;;;;;;7.53;5.22;;;;;;;9.38;100.00;99493.72;5016128;28;20502;-72
2021/08/24 04:15:32;;;;;;;13.82;5.28;;;;;;;9.41;100.00;99482.53;5029389;28;20041;-72
2021/08/24 04:17:57;;;;;;;7.57;5.28;;;;;;;9.53;100.00;99493.75;5020509;28;20014;-74
2021/08/24 04:20:23;;;;;;;8.70;4.55;;;;;;;9.47;100.00;99493.66;5014680;28;20038;-74
2021/08/24 04:22:50;;;;;;;5.82;4.22;;;;;;;9.40;100.00;99499.75;4999838;28;20035;-71
2021/08/24 04:25:16;;;;;;;5.53;4.55;;;;;;;9.39;100.00;99499.94;4990285;28;20018;-71
2021/08/24 04:27:43;;;;;;;6.90;4.63;;;;;;;9.38;100.00;99493.72;4976063;28;20034;-73
2021/08/24 04:30:09;;;;;;;5.15;4.30;;;;;;;9.50;100.00;99494.13;4993943;28;20018;-72
2021/08/24 04:32:36;;;;;;;16.40;5.15;;;;;;;9.49;100.00;99511.38;4989134;28;20057;-73
2021/08/24 04:35:03;;;;;;;5.47;4.55;;;;;;;9.48;100.00;99506.13;4980381;28;20039;-71
2021/08/24 04:37:28;;;;;;;6.43;5.15;;;;;;;9.41;100.00;99493.34;4977909;28;20108;-72
2021/08/24 04:39:54;;;;;;;5.60;4.75;;;;;;;9.46;100.00;99510.88;4994471;28;20037;-72
2021/08/24 04:42:19;;;;;;;4.70;3.72;;;;;;;9.44;100.00;99519.16;4994092;28;20038;-71
2021/08/24 04:44:45;;;;;;;6.57;4.72;;;;;;;9.37;100.00;99496.56;4988741;28;20060;-72
2021/08/24 04:47:10;;;;;;;5.50;4.70;;;;;;;9.51;100.00;99519.28;4992343;28;20053;-72
2021/08/24 04:49:35;;;;;;;6.38;4.43;;;;;;;9.60;100.00;99519.03;4993426;28;20030;-71
2021/08/24 04:52:01;;;;;;;8.00;4.45;;;;;;;9.73;100.00;99513.03;4995436;28;20034;-70
2021/08/24 04:54:33;;;;;;;6.13;4.32;;;;;;;9.74;100.00;99513.88;4993748;28;20029;-70
2021/08/24 04:56:58;;;;;;;5.40;4.22;;;;;;;9.91;100.00;99514.63;4992467;28;20030;-72
2021/08/24 04:59:24;;;;;;;6.75;4.55;;;;;;;10.01;100.00;99517.91;4996341;28;20113;-71
2021/08/24 05:01:49;;;;;;;6.57;3.70;;;;;;;9.98;100.00;99511.00;4983127;28;20014;-71
2021/08/24 05:04:14;;;;;;;6.97;3.38;;;;;;;10.01;100.00;99515.19;4973718;28;20516;-71
2021/08/24 05:06:39;;;;;;;4.82;3.33;;;;;;;9.97;100.00;99514.72;4984802;28;20019;-71
2021/08/24 05:09:05;;;;;;;9.95;3.78;;;;;;;10.11;100.00;99510.34;4986594;28;20599;-72
2021/08/24 05:11:30;;;;;;;9.75;6.15;;;;;;;10.36;100.00;99519.13;4990458;28;20038;-72
2021/08/24 05:13:55;;;;;;;18.45;7.78;;;;;;;10.59;100.00;99520.94;4991472;28;20109;-69
2021/08/24 05:16:21;;;;;;;11.48;6.70;;;;;;;10.67;100.00;99524.38;4986386;28;20045;-69
2021/08/24 05:18:46;;;;;;;10.55;6.57;;;;;;;10.80;100.00;99522.88;4991370;28;20037;-69
2021/08/24 05:21:15;;;;;;;15.18;6.18;;;;;;;10.91;100.00;99500.75;4993640;28;20121;-70
2021/08/24 05:23:41;;;;;;;;;;;;;;;11.21;100.00;99523.19;4993486;28;20034;-70
2021/08/24 05:26:09;;;;;;;9.00;5.40;;;;;;;11.41;100.00;99520.72;4992843;28;19936;-74
2021/08/24 05:28:35;;;;;;;7.10;4.85;;;;;;;11.55;100.00;99522.56;4990948;28;20057;-73
2021/08/24 05:31:01;;;;;;;5.80;4.28;;;;;;;11.60;100.00;99516.56;4976024;28;20026;-73
2021/08/24 05:33:26;;;;;;;6.65;4.50;;;;;;;11.87;100.00;99514.13;4987934;28;20026;-72
2021/08/24 05:35:51;;;;;;;11.95;3.63;;;;;;;11.92;99.46;99523.38;4991341;28;20030;-70
2021/08/24 05:38:17;;;;;;;7.25;3.78;;;;;;;12.03;100.00;99514.72;4993578;28;20037;-72
2021/08/24 05:40:42;;;;;;;8.27;3.72;;;;;;;12.15;100.00;99520.44;4993367;28;20084;-73
2021/08/24 05:43:07;;;;;;;5.50;3.88;;;;;;;12.20;100.00;99528.00;4982223;28;20034;-73
2021/08/24 05:45:33;;;;;;;9.35;4.25;;;;;;;12.40;100.00;99526.28;4988809;28;20029;-72
2021/08/24 05:47:58;;;;;;;5.75;4.18;;;;;;;12.55;99.56;99517.19;5007573;28;20018;-73
2021/08/24 05:50:26;;;;;;;6.35;4.65;;;;;;;12.79;100.00;99526.75;5007564;28;20109;-74
2021/08/24 05:52:51;;;;;;;5.80;3.85;;;;;;;13.04;99.49;99530.63;5010113;28;20323;-74
2021/08/24 05:55:16;;;;;;;6.05;4.60;;;;;;;13.20;100.00;99517.75;5009482;28;20030;-73
2021/08/24 05:57:42;;;;;;;5.88;4.57;;;;;;;13.26;99.42;99515.09;5003214;28;20032;-73
2021/08/24 06:00:08;;;;;;;6.45;4.75;;;;;;;13.50;100.00;99521.88;5010181;28;20034;-72
2021/08/24 06:02:35;;;;;;;6.35;4.63;;;;;;;13.29;99.28;99525.56;5005025;28;20033;-72
2021/08/24 06:05:00;;;;;;;6.38;4.82;;;;;;;13.33;100.00;99517.81;5003329;28;20026;-72
2021/08/24 06:07:25;;;;;;;7.97;4.75;;;;;;;13.27;100.00;99524.91;5008262;28;20053;-72
2021/08/24 06:09:50;;;;;;;5.28;4.32;;;;;;;13.28;100.00;99520.31;5008370;28;20145;-70
2021/08/24 06:12:16;;;;;;;6.40;4.82;;;;;;;13.21;100.00;99522.16;5011099;28;20464;-70
2021/08/24 06:14:42;;;;;;;8.55;4.50;;;;;;;13.14;98.86;99519.41;5005641;28;20070;-70
2021/08/24 06:17:07;;;;;;;6.18;4.32;;;;;;;13.22;99.21;99531.97;4994737;28;20030;-70
2021/08/24 06:19:32;;;;;;;6.63;4.35;;;;;;;13.22;96.20;99511.06;5004205;28;20027;-76
2021/08/24 06:22:00;;;;;;;8.60;4.45;;;;;;;13.31;96.30;99509.91;4993636;28;20053;-75
2021/08/24 06:24:25;;;;;;;8.40;4.80;;;;;;;13.47;98.08;99513.28;4992392;28;20526;-74
2021/08/24 06:26:51;;;;;;;8.68;4.57;;;;;;;13.52;96.96;99510.78;4997075;28;20098;-74
2021/08/24 06:29:16;;;;;;;7.28;4.47;;;;;;;13.80;98.19;99525.06;4997411;28;20034;-75
2021/08/24 06:31:45;;;;;;;4.63;4.03;;;;;;;13.92;94.82;99528.00;4993467;28;20121;-73
2021/08/24 06:34:12;;;;;;;9.95;4.63;;;;;;;14.04;94.03;99520.06;4993954;28;20030;-72
2021/08/24 06:36:39;;;;;;;4.95;3.63;;;;;;;13.99;91.82;99512.53;4998197;28;20022;-71
2021/08/24 06:39:06;;;;;;;7.05;4.25;;;;;;;14.28;90.00;99525.94;4995643;28;20045;-72
2021/08/24 06:41:31;;;;;;;7.13;3.65;;;;;;;14.44;89.30;99517.34;4993240;28;20551;-72
2021/08/24 06:43:56;;;;;;;7.68;4.75;;;;;;;14.30;89.45;99518.41;4995478;28;20084;-73
2021/08/24 06:46:21;;;;;;;8.20;4.40;;;;;;;14.39;90.49;99512.53;4997203;28;20495;-72
2021/08/24 06:48:47;;;;;;;7.03;3.60;;;;;;;14.64;88.97;99514.63;4989451;28;20045;-72
2021/08/24 06:51:13;;;;;;;5.03;3.53;;;;;;;14.71;88.15;99528.25;4995658;28;20105;-72
2021/08/24 06:53:40;;;;;;;5.10;3.58;;;;;;;14.63;90.06;99527.41;4995407;28;20077;-72
2021/08/24 06:56:06;;;;;;;7.97;4.18;;;;;;;14.52;89.96;99533.47;4996898;28;20041;-71
2021/08/24 06:58:31;;;;;;;7.07;3.78;;;;;;;14.60;89.31;99530.56;4996418;28;20113;-71
2021/08/24 07:00:56;;;;;;;9.63;3.28;;;;;;;14.77;88.87;99521.94;4995424;28;20030;-74
2021/08/24 07:03:22;;;;;;;5.03;3.30;;;;;;;15.00;87.73;99514.13;4994900;28;20543;-74
2021/08/24 07:05:51;;;;;;;5.00;3.50;;;;;;;15.01;87.82;99515.81;4995278;28;20029;-73
2021/08/24 07:08:17;;;;;;;4.63;3.10;;;;;;;14.96;87.61;99506.56;4983935;28;20510;-74
2021/08/24 07:10:43;;;;;;;4.72;3.05;;;;;;;15.22;86.28;99516.53;4994261;28;20030;-74
2021/08/24 07:13:08;;;;;;;5.53;2.75;;;;;;;15.56;86.51;99521.66;4995304;28;20495;-74
2021/08/24 07:15:36;;;;;;;9.32;3.38;;;;;;;15.89;81.59;99523.34;4993330;28;20041;-70
2021/08/24 07:18:02;;;;;;;4.13;3.10;;;;;;;16.05;80.33;99532.91;4994649;28;20027;-75
2021/08/24 07:20:28;;;;;;;3.90;3.08;;;;;;;16.04;80.58;99533.13;4980986;28;20045;-73
2021/08/24 07:22:57;;;;;;;5.25;3.15;;;;;;;15.99;79.24;99517.41;4988832;28;20038;-75
2021/08/24 07:25:25;;;;;;;4.55;2.97;;;;;;;16.34;76.04;99531.41;4989072;28;20026;-74
2021/08/24 07:27:51;;;;;;;3.28;2.42;;;;;;;16.28;76.00;99518.66;4993439;28;20072;-72
2021/08/24 07:30:17;;;;;;;6.22;2.65;;;;;;;16.62;74.19;99525.47;4993563;28;20117;-72
2021/08/24 07:32:42;;;;;;;10.10;2.50;;;;;;;17.00;73.73;99520.91;4990765;28;20400;-72
2021/08/24 07:35:09;;;;;;;5.13;3.22;;;;;;;16.65;74.05;99522.28;4988944;28;20041;-72
2021/08/24 07:37:34;;;;;;;4.28;2.63;;;;;;;17.56;72.38;99511.59;4982292;28;20026;-71
2021/08/24 07:40:00;;;;;;;5.13;2.47;;;;;;;18.23;69.22;99510.59;4984468;28;20030;-72
2021/08/24 07:42:25;;;;;;;4.32;2.13;;;;;;;19.40;66.66;99485.00;4983655;28;20023;-72
2021/08/24 07:44:51;;;;;;;3.55;2.08;;;;;;;21.89;59.43;99498.09;4983452;28;20026;-72
2021/08/24 07:47:16;;;;;;;3.22;1.88;;;;;;;24.46;52.19;99492.72;4987709;28;20037;-72
2021/08/24 07:49:44;;;;;;;3.67;1.83;;;;;;;23.86;49.05;99497.09;4985655;28;20030;-72
2021/08/24 07:52:10;;;;;;;4.32;1.48;;;;;;;24.56;46.72;99504.88;4987537;28;20022;-73
2021/08/24 07:54:37;;;;;;;4.70;1.80;;;;;;;25.27;46.44;99487.28;4982574;28;20033;-73
2021/08/24 07:57:02;;;;;;;3.63;1.67;;;;;;;27.07;43.12;99510.63;4983626;28;20026;-73
2021/08/24 07:59:28;;;;;;;2.83;1.42;;;;;;;27.64;41.05;99512.69;4984845;28;20030;-73
2021/08/24 08:01:54;;;;;;;5.15;1.65;;;;;;;29.25;38.80;99500.31;4980734;28;20027;-73
2021/08/24 08:04:21;;;;;;;2.00;1.05;;;;;;;30.40;36.19;99492.69;4981055;28;20038;-74
2021/08/24 08:06:46;;;;;;;2.67;1.92;;;;;;;29.50;35.50;99504.50;4985262;28;20023;-73
2021/08/24 08:09:11;;;;;;;2.72;1.50;;;;;;;28.86;36.88;99492.41;4982785;28;20033;-73
2021/08/24 08:11:38;;;;;;;2.08;1.30;;;;;;;29.48;36.56;99493.66;4979739;28;20476;-73
2021/08/24 08:14:04;;;;;;;2.33;1.40;;;;;;;30.44;33.65;99490.91;4985952;28;20109;-74
2021/08/24 08:16:30;;;;;;;2.50;1.70;;;;;;;31.57;32.11;99488.63;4986828;28;20049;-73
2021/08/24 08:18:55;;;;;;;4.03;1.50;;;;;;;32.13;32.70;99491.66;4979172;28;20417;-73
2021/08/24 08:21:20;;;;;;;1.65;1.23;;;;;;;31.16;33.42;99489.81;4981387;28;20620;-74
2021/08/24 08:23:46;;;;;;;1.92;1.20;;;;;;;32.44;32.31;99481.06;4981825;28;20034;-74
2021/08/24 08:26:11;;;;;;;2.80;1.33;;;;;;;30.55;34.77;99492.31;4982490;28;20437;-73
2021/08/24 08:28:37;;;;;;;4.05;1.42;;;;;;;29.54;35.29;99504.72;4982305;28;20027;-73
2021/08/24 08:31:03;;;;;;;2.78;1.33;;;;;;;26.91;41.02;99491.63;4980654;28;20022;-74
2021/08/24 08:33:30;;;;;;;2.42;1.40;;;;;;;24.27;45.65;99508.19;4979984;28;20030;-73
2021/08/24 08:35:55;;;;;;;4.50;1.50;;;;;;;22.41;51.72;99520.63;4980962;28;20591;-73
2021/08/24 08:38:22;;;;;;;2.80;2.00;;;;;;;21.11;54.65;99511.22;4981921;28;20109;-73
2021/08/24 08:41:14;;;;;;;5.97;2.03;;;;;;;20.57;56.78;99509.09;4977994;28;20033;-73
2021/08/24 08:43:48;;;;;;;3.17;1.90;;;;;;;20.02;59.01;99511.72;4981051;28;20057;-71
2021/08/24 08:46:22;;;;;;;4.13;1.92;;;;;;;19.52;61.96;99507.75;4992428;28;20038;-72
2021/08/24 08:49:05;;;;;;;3.75;2.00;;;;;;;19.15;62.33;99508.13;4983289;28;20037;-73
2021/08/24 08:51:40;;;;;;;4.82;1.65;;;;;;;19.43;63.09;99504.56;5002355;28;20030;-71
2021/08/24 08:54:16;;;;;;;2.88;1.80;;;;;;;20.42;59.30;99499.75;4993353;28;20026;-68
2021/08/24 08:56:52;;;;;;;3.83;1.95;;;;;;;20.77;58.03;99497.53;4993112;28;20038;-68
2021/08/24 08:59:26;;;;;;;2.30;1.67;;;;;;;21.31;56.39;99501.56;4988949;28;20065;-70
2021/08/24 09:02:13;;;;;;;3.15;1.85;;;;;;;21.17;55.93;99499.19;4982683;28;20026;-70
2021/08/24 09:04:43;;;;;;;4.28;1.73;;;;;;;20.25;56.86;99505.22;4989053;28;20121;-74
2021/08/24 09:07:28;;;;;;;2.88;1.80;;;;;;;19.92;57.43;99512.38;5005251;28;20042;-72
2021/08/24 09:09:54;;;;;;;4.30;1.85;;;;;;;20.30;56.91;99508.91;4989660;28;20031;-72
2021/08/24 09:12:21;;;;;;;5.53;1.80;;;;;;;19.79;57.53;99508.03;4981533;28;20481;-72
2021/08/24 09:14:53;;;;;;;4.05;1.80;;;;;;;19.64;58.29;99510.44;4983401;28;20023;-73
2021/08/24 09:17:41;;;;;;;5.43;1.98;;;;;;;19.48;60.94;99512.88;4992977;28;20038;-67
2021/08/24 09:20:26;;;;;;;4.53;2.10;;;;;;;18.97;60.50;99511.84;4989165;28;20437;-68
2021/08/24 09:22:52;;;;;;;3.45;2.00;;;;;;;19.17;59.40;99511.44;4988683;28;20137;-72
2021/08/24 09:25:23;;;;;;;4.03;2.00;;;;;;;19.24;59.47;99511.31;4986244;28;20498;-68
2021/08/24 09:28:04;;;;;;;4.47;1.90;;;;;;;19.12;61.38;99522.28;4986847;28;20029;-67
2021/08/24 09:30:30;;;;;;;6.72;1.90;;;;;;;19.09;60.80;99516.47;4993456;28;20496;-67
2021/08/24 09:33:05;;;;;;;3.55;1.90;;;;;;;19.09;61.44;99509.06;4992961;28;20061;-67
2021/08/24 09:35:36;;;;;;;3.42;1.90;;;;;;;18.89;61.04;99511.34;4993373;28;20022;-74
2021/08/24 09:38:12;;;;;;;2.95;1.95;;;;;;;18.77;61.77;99500.41;4991161;28;20407;-73
2021/08/24 09:40:48;;;;;;;4.93;2.20;;;;;;;18.94;61.77;99506.84;4993531;28;20022;-70
2021/08/24 09:43:25;;;;;;;3.25;2.20;;;;;;;19.00;62.59;99496.81;4990922;28;20026;-73
2021/08/24 09:45:56;;;;;;;4.10;2.25;;;;;;;19.20;60.75;99499.13;4992827;28;20451;-68
2021/08/24 09:48:22;;;;;;;5.43;2.17;;;;;;;19.10;61.85;99510.75;4989405;28;20380;-68
2021/08/24 09:50:47;;;;;;;3.13;2.05;;;;;;;18.86;62.28;99507.19;4980048;28;20639;-68
2021/08/24 09:53:30;;;;;;;4.20;2.42;;;;;;;19.20;61.08;99516.44;4990086;28;20094;-68
2021/08/24 09:55:57;;;;;;;3.72;2.10;;;;;;;18.99;62.31;99506.97;4989277;28;20022;-69
2021/08/24 09:58:39;;;;;;;3.17;1.80;;;;;;;18.91;62.58;99511.97;4993227;28;20034;-68
2021/08/24 10:01:12;;;;;;;3.40;2.17;;;;;;;19.45;61.46;99512.56;4983135;28;20026;-68
2021/08/24 10:03:59;;;;;;;4.22;2.50;;;;;;;19.48;60.07;99496.41;4994891;28;20026;-67
2021/08/24 10:06:27;;;;;;;6.15;3.33;;;;;;;19.51;60.73;99508.81;4979499;28;20039;-68
2021/08/24 10:09:10;;;;;;;4.57;2.40;;;;;;;19.57;60.39;99507.00;4977950;28;20027;-68
2021/08/24 10:11:35;;;;;;;4.45;2.30;;;;;;;19.25;62.24;99521.19;4979356;28;20404;-68
2021/08/24 10:14:27;;;;;;;6.90;2.95;;;;;;;19.23;61.73;99520.59;4977408;28;20034;-68
2021/08/24 10:16:58;;;;;;;4.00;2.40;;;;;;;18.87;62.54;99519.84;4979911;28;20034;-68
2021/08/24 10:19:28;;;;;;;5.25;2.45;;;;;;;18.70;64.18;99524.34;4978969;28;20026;-68
2021/08/24 10:22:09;;;;;;;6.15;3.38;;;;;;;18.88;64.03;99521.50;4984760;28;20092;-68
2021/08/24 10:24:40;;;;;;;13.77;2.80;;;;;;;18.76;64.10;99520.69;4989431;28;20048;-68
2021/08/24 10:27:06;;;;;;;5.07;2.70;;;;;;;19.01;64.96;99523.16;4976347;28;20023;-68
2021/08/24 10:29:35;;;;;;;3.30;2.10;;;;;;;19.18;64.17;99523.25;4984993;28;20815;-68
2021/08/24 10:32:05;;;;;;;5.30;2.40;;;;;;;19.09;63.61;99516.47;4984739;28;20318;-68
2021/08/24 10:34:40;;;;;;;6.05;2.63;;;;;;;18.91;64.44;99528.41;4992701;28;20025;-68
2021/08/24 10:37:23;;;;;;;5.28;2.58;;;;;;;18.82;64.40;99526.03;5001975;28;20464;-68
2021/08/24 10:39:54;;;;;;;4.05;2.35;;;;;;;18.24;65.43;99517.78;4981731;28;20023;-68
2021/08/24 10:42:26;;;;;;;7.63;2.78;;;;;;;18.00;66.25;99523.22;4986702;28;20049;-68
2021/08/24 10:44:55;;;;;;;4.68;2.80;;;;;;;18.00;66.89;99533.28;4993560;28;20539;-68
2021/08/24 10:47:25;;;;;;;3.85;2.60;;;;;;;18.09;65.98;99535.47;5002296;28;20113;-68
2021/08/24 10:49:53;;;;;;;4.50;2.90;;;;;;;17.98;66.31;99533.53;4978541;28;20400;-69
2021/08/24 10:52:37;;;;;;;5.18;2.78;;;;;;;18.35;65.22;99536.94;4986471;28;20025;-68
2021/08/24 10:55:11;;;;;;;4.38;2.60;;;;;;;18.38;64.97;99530.16;4984815;28;20105;-68
2021/08/24 10:57:52;;;;;;;5.47;2.85;;;;;;;18.49;65.61;99526.59;4995506;28;20027;-67
2021/08/24 11:00:38;;;;;;;4.68;2.40;;;;;;;19.13;63.93;99529.47;4988763;28;20424;-69
2021/08/24 11:03:32;;;;;;;5.97;2.60;;;;;;;19.53;60.49;99525.06;4972358;28;20431;-68
2021/08/24 11:06:23;;;;;;;3.50;2.25;;;;;;;19.60;61.69;99531.25;4990816;28;20121;-68
2021/08/24 11:09:25;;;;;;;9.85;3.55;;;;;;;19.84;60.95;99538.31;4973015;28;20038;-69
2021/08/24 11:12:02;;;;;;;7.97;3.20;;;;;;;19.72;60.86;99536.69;4976758;28;20437;-69
2021/08/24 11:14:43;;;;;;;6.55;3.90;;;;;;;19.61;61.59;99541.13;4973545;28;20031;-68
2021/08/24 11:17:52;;;;;;;4.85;3.03;;;;;;;19.60;61.29;99531.25;4974391;28;20062;-68
2021/08/24 11:20:37;;;;;;;4.30;2.58;;;;;;;19.58;60.88;99536.13;4982433;28;20038;-68
2021/08/24 11:23:21;;;;;;;4.43;2.67;;;;;;;19.08;62.28;99539.50;4973608;28;20043;-68
2021/08/24 11:25:51;;;;;;;5.43;2.85;;;;;;;19.20;61.99;99543.03;4992596;28;20037;-68
2021/08/24 11:28:35;;;;;;;5.88;2.72;;;;;;;19.45;61.01;99543.56;4993698;28;20110;-69
2021/08/24 11:31:08;;;;;;;4.00;2.33;;;;;;;18.80;63.27;99538.31;4992763;28;20124;-68
2021/08/24 11:33:59;;;;;;;4.55;2.80;;;;;;;19.02;63.09;99550.34;4972773;28;20060;-68
2021/08/24 11:36:37;;;;;;;4.55;2.83;;;;;;;18.78;63.10;99538.53;4977949;28;20034;-68
2021/08/24 11:39:29;;;;;;;3.33;2.50;;;;;;;18.96;62.66;99548.56;4985781;28;20112;-68
2021/08/24 11:42:03;;;;;;;5.20;2.78;;;;;;;18.92;63.03;99539.16;4968144;28;20046;-68
2021/08/24 11:44:39;;;;;;;4.70;2.78;;;;;;;18.58;64.09;99558.06;4990794;28;20113;-68